Time;durP1;ratioP1;P1;durP2;ratioP2;P2;SDS_P1;SDS_P2;PMS_P1;PMS_P2;Temp;Humidity;BMP_temperature;BMP_pressure;BME280_temperature;BME280_humidity;BME280_pressure;Samples;Min_cycle;Max_cycle;Signal;HPM_P1;HPM_P2
2022/12/15 00:39:58;;;;;;;323.60;82.20;;;;;;;-6.55;75.20;99250.29;658534;1311;268320;-83
2022/12/15 01:25:50;;;;;;;176.10;59.10;;;;;;;-6.89;74.18;99241.38;658476;1312;140718;-83
2022/12/15 01:40:59;;;;;;;159.20;53.40;;;;;;;-7.08;73.74;99243.52;658578;1313;139854;-83
2022/12/15 01:56:05;;;;;;;259.90;54.10;;;;;;;-7.13;73.81;99253.38;658763;1313;139559;-82
2022/12/15 02:11:37;;;;;;;131.20;38.60;;;;;;;-7.12;74.14;99252.33;658539;1307;139384;-82
2022/12/15 02:27:09;;;;;;;106.10;35.90;;;;;;;-6.62;74.60;99242.02;658598;1309;139428;-83
2022/12/15 02:42:13;;;;;;;148.20;49.00;;;;;;;-6.17;75.05;99240.29;658611;1314;139615;-82
2022/12/15 02:57:46;;;;;;;172.90;54.30;;;;;;;-6.00;75.33;99244.08;658679;1309;139417;-83
2022/12/15 03:12:49;;;;;;;152.00;47.30;;;;;;;-5.76;75.70;99249.16;658416;1314;139416;-82
2022/12/15 03:27:53;;;;;;;131.30;43.90;;;;;;;-5.52;76.11;99249.61;658503;1314;139459;-83
2022/12/15 03:42:57;;;;;;;102.50;37.00;;;;;;;-5.29;76.73;99254.16;658630;1300;141384;-83
2022/12/15 03:58:01;;;;;;;;;;;;;;;-5.02;77.07;99264.88;658689;1313;140885;-83
2022/12/15 04:13:07;;;;;;;110.50;41.90;;;;;;;-4.79;77.35;99271.13;658511;1315;125529;-84
2022/12/15 05:45:04;;;;;;;153.80;53.80;;;;;;;-3.96;79.01;99316.82;659125;1315;139408;-84
2022/12/15 06:00:07;;;;;;;108.40;42.80;;;;;;;-3.82;79.28;99337.42;658811;1314;139371;-84
2022/12/15 06:15:14;;;;;;;204.60;63.90;;;;;;;-3.95;79.37;99368.55;661393;1306;139664;-84
2022/12/15 06:30:17;;;;;;;143.70;52.90;;;;;;;-3.94;80.10;99402.33;659065;1313;139513;-83
2022/12/15 06:45:21;;;;;;;93.40;37.50;;;;;;;-3.86;79.95;99414.81;658384;1315;139487;-84
2022/12/15 07:00:26;;;;;;;102.60;40.60;;;;;;;-3.57;79.54;99424.52;658867;1307;139424;-84
2022/12/15 07:15:30;;;;;;;117.20;47.00;;;;;;;-3.49;79.53;99452.86;658763;1315;139576;-84
2022/12/15 07:30:34;;;;;;;108.60;43.40;;;;;;;-3.61;79.84;99474.25;658771;1307;139921;-84
2022/12/15 07:45:40;;;;;;;147.40;50.40;;;;;;;-3.46;81.00;99497.39;658899;1315;139628;-83
2022/12/15 08:00:52;;;;;;;117.70;47.80;;;;;;;-3.30;81.51;99525.25;659023;1310;139661;-85
2022/12/15 08:15:55;;;;;;;137.40;58.70;;;;;;;-3.21;82.13;99543.17;658454;1310;139448;-84
2022/12/15 08:31:15;;;;;;;109.40;42.50;;;;;;;-3.05;82.77;99558.75;658791;1310;139619;-85
2022/12/15 08:46:22;;;;;;;115.80;45.50;;;;;;;-2.89;82.37;99591.75;659399;1313;139415;-85
2022/12/15 09:01:27;;;;;;;228.30;89.00;;;;;;;-2.59;82.43;99606.70;659052;1313;139471;-84
2022/12/15 09:16:30;;;;;;;367.50;128.60;;;;;;;-2.44;82.62;99624.89;659129;1303;139698;-83
2022/12/15 09:31:36;;;;;;;178.70;67.00;;;;;;;-2.29;82.82;99627.32;659170;1300;139863;-82
2022/12/15 09:47:11;;;;;;;122.30;49.40;;;;;;;-2.15;83.06;99629.77;659137;1311;139384;-82
2022/12/15 10:02:17;;;;;;;185.10;69.10;;;;;;;-2.24;82.95;99635.14;658585;1311;139874;-82
2022/12/15 10:17:43;;;;;;;239.20;113.60;;;;;;;-2.45;83.62;99649.29;659373;1313;139387;-83
2022/12/15 10:32:50;;;;;;;147.50;55.30;;;;;;;-2.36;83.36;99655.52;659343;1303;139624;-82
2022/12/15 10:47:57;;;;;;;99.30;38.20;;;;;;;-2.41;84.45;99658.15;659510;1313;139723;-82
2022/12/15 11:03:20;;;;;;;226.60;80.20;;;;;;;-2.35;83.85;99672.46;659244;1310;139228;-82
2022/12/15 11:18:30;;;;;;;461.30;169.10;;;;;;;-2.38;84.00;99680.30;659175;1313;139449;-82
2022/12/15 11:33:33;;;;;;;121.10;41.30;;;;;;;-2.48;83.26;99686.03;659595;1313;139767;-82
2022/12/15 11:48:47;;;;;;;297.00;79.00;;;;;;;-2.60;83.15;99699.23;659414;1313;139459;-84
2022/12/15 12:04:13;;;;;;;188.60;57.50;;;;;;;-2.72;83.35;99707.94;659320;1313;139495;-84
2022/12/15 12:19:29;;;;;;;295.90;86.10;;;;;;;-3.09;83.87;99732.21;659735;1313;139498;-84
2022/12/15 12:34:49;;;;;;;147.30;54.20;;;;;;;-3.21;83.94;99764.54;658997;1299;188558;-84
2022/12/15 12:50:01;;;;;;;220.60;79.10;;;;;;;-3.14;83.35;99764.59;659542;1313;139367;-84
2022/12/15 13:05:22;;;;;;;292.20;138.30;;;;;;;-3.19;83.39;99780.84;658994;1313;139410;-84
2022/12/15 13:20:28;;;;;;;177.90;63.80;;;;;;;-3.32;83.48;99800.38;659487;1305;139498;-84
2022/12/15 13:35:33;;;;;;;139.50;58.40;;;;;;;-3.35;83.25;99821.15;661093;1306;139548;-84
2022/12/15 13:50:47;;;;;;;157.80;62.70;;;;;;;-3.51;83.40;99836.45;659134;1310;139697;-83
2022/12/15 14:06:14;;;;;;;147.20;48.60;;;;;;;-3.59;83.45;99849.58;658932;1313;139546;-83
2022/12/15 14:21:25;;;;;;;182.70;62.10;;;;;;;-3.76;83.37;99859.59;659357;1313;139550;-83
2022/12/15 14:36:30;;;;;;;145.10;48.90;;;;;;;-3.95;84.16;99883.15;659105;1313;139423;-84
2022/12/15 14:51:45;;;;;;;124.60;44.80;;;;;;;-3.99;84.76;99896.10;661240;1306;139518;-85
2022/12/15 15:06:54;;;;;;;130.60;45.50;;;;;;;-3.80;84.91;99901.23;658725;1313;139399;-84
2022/12/15 15:22:00;;;;;;;140.70;51.30;;;;;;;-3.60;85.35;99909.46;659284;1306;139551;-84
2022/12/15 15:37:12;;;;;;;149.80;50.20;;;;;;;-3.34;85.40;99912.48;659451;1313;139533;-83
2022/12/15 15:52:21;;;;;;;139.30;47.20;;;;;;;-3.11;85.66;99908.17;658893;1313;139544;-83
2022/12/15 16:07:27;;;;;;;316.80;88.50;;;;;;;-2.85;85.81;99908.42;659434;1313;139851;-83
2022/12/15 16:22:32;;;;;;;194.60;65.20;;;;;;;-2.83;86.63;99926.80;659345;1314;139548;-83
2022/12/15 16:37:36;;;;;;;156.50;50.60;;;;;;;-2.73;87.45;99918.21;659335;1306;139388;-84
2022/12/15 16:52:44;;;;;;;177.50;70.30;;;;;;;-2.75;87.56;99924.96;659295;1313;139471;-83
2022/12/15 17:07:54;;;;;;;157.00;55.80;;;;;;;-2.76;88.49;99945.56;659343;1313;139604;-84
2022/12/15 17:23:02;;;;;;;135.60;50.20;;;;;;;-2.70;88.16;99976.16;659518;1313;139578;-84
2022/12/15 17:38:13;;;;;;;135.70;51.30;;;;;;;-2.55;88.47;100000.92;658790;1313;139792;-83
2022/12/15 17:53:20;;;;;;;131.60;48.70;;;;;;;-2.51;88.25;100007.29;659093;1308;139752;-84
2022/12/15 18:08:26;;;;;;;172.60;62.90;;;;;;;-2.49;88.28;100021.23;658899;1316;139689;-84
2022/12/15 18:23:32;;;;;;;164.70;60.40;;;;;;;-2.31;88.11;100021.06;659016;1313;139772;-84
2022/12/15 18:38:37;;;;;;;174.60;61.00;;;;;;;-2.35;88.36;100032.36;658646;1310;139681;-84
2022/12/15 18:53:41;;;;;;;160.70;61.30;;;;;;;-2.08;87.57;100040.89;658689;1314;140083;-83
2022/12/15 19:08:45;;;;;;;156.10;60.30;;;;;;;-2.08;86.94;100054.12;658685;1316;139785;-84
2022/12/15 19:23:49;;;;;;;123.10;47.80;;;;;;;-2.13;85.24;100067.16;658562;1313;139972;-84
2022/12/15 19:38:55;;;;;;;121.80;50.80;;;;;;;-2.13;84.67;100078.63;659592;1308;139501;-84
2022/12/15 19:54:00;;;;;;;106.90;38.70;;;;;;;-1.97;84.36;100071.52;659056;1313;139587;-83
2022/12/15 20:09:09;;;;;;;151.80;55.20;;;;;;;-1.86;83.93;100065.42;658728;1314;139722;-84
2022/12/15 20:24:17;;;;;;;141.90;53.00;;;;;;;-1.74;83.49;100083.80;658579;1314;139816;-83
2022/12/15 20:39:28;;;;;;;118.20;49.20;;;;;;;-1.84;82.91;100094.82;658516;1315;139687;-83
2022/12/15 20:54:31;;;;;;;107.70;41.10;;;;;;;-1.91;82.57;100111.04;658703;1315;139859;-84
2022/12/15 21:09:35;;;;;;;101.80;39.30;;;;;;;-2.09;81.22;100115.52;658640;1313;139743;-83
2022/12/15 21:24:40;;;;;;;126.60;46.30;;;;;;;-2.12;81.06;100129.50;658578;1314;139802;-83
2022/12/15 21:39:44;;;;;;;;;;;;;;;-2.09;81.33;100145.50;658826;1314;139641;-84
2022/12/15 21:54:48;;;;;;;104.70;45.00;;;;;;;-2.01;81.53;100157.52;658940;1313;125670;-83
2022/12/15 22:09:52;;;;;;;104.00;42.40;;;;;;;-2.08;81.35;100177.16;658942;1314;139665;-83
2022/12/15 22:24:56;;;;;;;116.90;45.00;;;;;;;-2.15;81.10;100176.05;659166;1313;139695;-84
2022/12/15 22:40:07;;;;;;;122.40;47.50;;;;;;;-2.04;81.09;100157.29;658926;1314;139567;-84
2022/12/15 22:55:19;;;;;;;122.50;49.00;;;;;;;-2.01;80.85;100146.55;659110;1310;140189;-84
2022/12/15 23:25:45;;;;;;;119.20;45.60;;;;;;;-2.06;80.01;100153.96;658855;1311;139554;-84
2022/12/15 23:40:51;;;;;;;138.60;49.50;;;;;;;-1.96;80.00;100159.77;658435;1315;139579;-83
2022/12/15 23:55:55;;;;;;;118.70;43.80;;;;;;;-2.05;80.11;100169.31;658588;1314;139607;-83
